Time;durP1;ratioP1;P1;durP2;ratioP2;P2;SDS_P1;SDS_P2;PMS_P1;PMS_P2;Temp;Humidity;BMP_temperature;BMP_pressure;BME280_temperature;BME280_humidity;BME280_pressure;Samples;Min_cycle;Max_cycle;Signal;HPM_P1;HPM_P2
2021/12/07 00:01:17;;;;;;;3.07;2.13;;;;;;;;;;4972847;28;20034;-55
2021/12/07 00:03:44;;;;;;;3.20;2.03;;;;;;;;;;4983057;28;20038;-56
2021/12/07 00:06:11;;;;;;;2.83;2.10;;;;;;;;;;4988546;28;20022;-56
2021/12/07 00:08:40;;;;;;;2.70;1.93;;;;;;;;;;4990681;28;20035;-56
2021/12/07 00:11:07;;;;;;;3.33;2.13;;;;;;;;;;4991091;28;20034;-56
2021/12/07 00:13:36;;;;;;;9.03;2.50;;;;;;;;;;4983998;28;20557;-55
2021/12/07 00:16:10;;;;;;;5.13;2.40;;;;;;;;;;4995105;28;20093;-55
2021/12/07 00:18:37;;;;;;;4.50;2.50;;;;;;;;;;4995846;28;20026;-56
2021/12/07 00:21:04;;;;;;;2.93;1.93;;;;;;;;;;4995963;28;20052;-55
2021/12/07 00:23:32;;;;;;;3.80;2.17;;;;;;;;;;4994084;28;20023;-56
2021/12/07 00:25:58;;;;;;;5.23;2.47;;;;;;;;;;4976451;28;20030;-55
2021/12/07 00:28:25;;;;;;;5.43;3.33;;;;;;;;;;4972644;28;20022;-55
2021/12/07 00:30:54;;;;;;;7.23;3.50;;;;;;;;;;4990678;28;20103;-56
2021/12/07 00:35:51;;;;;;;3.30;2.27;;;;;;;;;;4988643;28;20239;-55
2021/12/07 00:38:20;;;;;;;3.40;2.20;;;;;;;;;;4994151;28;20089;-55
2021/12/07 00:40:46;;;;;;;6.10;2.20;;;;;;;;;;4995059;28;20030;-55
2021/12/07 00:43:14;;;;;;;6.77;2.23;;;;;;;;;;4995157;28;20161;-57
2021/12/07 00:45:45;;;;;;;7.80;2.87;;;;;;;;;;4975974;28;20106;-55
2021/12/07 00:48:12;;;;;;;6.93;2.37;;;;;;;;;;4975821;28;20031;-55
2021/12/07 00:50:40;;;;;;;4.80;2.20;;;;;;;;;;4971655;28;20031;-55
2021/12/07 00:53:07;;;;;;;3.70;2.07;;;;;;;;;;4970971;28;20038;-56
2021/12/07 00:55:35;;;;;;;4.40;2.53;;;;;;;;;;4987988;28;20030;-55
2021/12/07 00:58:11;;;;;;;4.40;1.77;;;;;;;;;;4990085;28;20022;-55
2021/12/07 01:00:39;;;;;;;5.90;2.13;;;;;;;;;;4974590;28;20394;-55
2021/12/07 01:03:05;;;;;;;8.67;2.57;;;;;;;;;;4975777;28;20046;-55
2021/12/07 01:05:34;;;;;;;3.73;2.13;;;;;;;;;;4975723;28;20035;-55
2021/12/07 01:26:59;;;;;;;;;;;;;;;;;;4994947;28;20509;-55
2021/12/07 01:29:27;;;;;;;13.13;2.83;;;;;;;;;;4994090;28;19917;-55
2021/12/07 01:45:14;;;;;;;6.30;2.50;;;;;;;;;;4982828;28;20048;-55
2021/12/07 01:48:05;;;;;;;9.30;3.30;;;;;;;;;;4994105;28;20039;-55
2021/12/07 02:01:34;;;;;;;8.30;2.95;;;;;;;;;;4989542;28;20121;-55
2021/12/07 02:04:01;;;;;;;6.27;2.80;;;;;;;;;;4988985;28;20374;-55
2021/12/07 02:06:27;;;;;;;16.77;2.90;;;;;;;;;;4989899;28;20489;-55
2021/12/07 02:08:54;;;;;;;6.60;3.33;;;;;;;;;;4981299;28;20077;-55
2021/12/07 02:11:21;;;;;;;7.23;3.13;;;;;;;;;;4994058;28;20022;-55
2021/12/07 02:16:17;;;;;;;4.50;2.87;;;;;;;;;;4993879;28;20385;-55
2021/12/07 02:18:44;;;;;;;6.70;2.77;;;;;;;;;;4991708;28;20105;-55
2021/12/07 02:21:21;;;;;;;5.77;3.17;;;;;;;;;;4969508;28;20031;-55
2021/12/07 02:23:48;;;;;;;7.03;2.63;;;;;;;;;;4970872;28;20081;-55
2021/12/07 02:26:15;;;;;;;6.40;2.67;;;;;;;;;;4988982;28;20478;-55
2021/12/07 02:28:42;;;;;;;6.93;2.50;;;;;;;;;;4988265;28;20026;-55
2021/12/07 02:31:09;;;;;;;8.50;2.70;;;;;;;;;;4991821;28;20026;-55
2021/12/07 02:33:36;;;;;;;8.00;3.70;;;;;;;;;;4993733;28;20426;-55
2021/12/07 02:36:04;;;;;;;9.90;3.93;;;;;;;;;;4993473;28;20048;-55
2021/12/07 02:38:31;;;;;;;6.30;2.80;;;;;;;;;;4993010;28;20517;-55
2021/12/07 02:40:58;;;;;;;10.70;2.63;;;;;;;;;;4973274;28;20026;-55
2021/12/07 02:43:26;;;;;;;6.40;2.73;;;;;;;;;;4969148;28;20093;-55
2021/12/07 02:45:53;;;;;;;9.20;2.97;;;;;;;;;;4969277;28;20069;-55
2021/12/07 02:48:23;;;;;;;4.07;2.40;;;;;;;;;;4969046;28;20073;-55
2021/12/07 02:50:51;;;;;;;4.93;2.77;;;;;;;;;;4986111;28;20128;-55
2021/12/07 02:53:22;;;;;;;4.70;2.60;;;;;;;;;;4993215;28;20041;-55
2021/12/07 02:55:49;;;;;;;5.87;2.60;;;;;;;;;;4991082;28;20045;-55
2021/12/07 02:58:17;;;;;;;4.90;2.60;;;;;;;;;;4993309;28;20101;-55
2021/12/07 03:00:50;;;;;;;9.10;2.93;;;;;;;;;;4993059;28;20057;-55
2021/12/07 03:03:17;;;;;;;7.67;3.03;;;;;;;;;;4992526;28;20110;-55
2021/12/07 03:27:37;;;;;;;8.32;2.53;;;;;;;;;;4987938;28;20088;-57
2021/12/07 03:30:06;;;;;;;11.37;4.30;;;;;;;;;;4975241;28;20070;-56
2021/12/07 03:32:33;;;;;;;62.37;38.43;;;;;;;;;;4968652;28;20023;-56
2021/12/07 03:35:00;;;;;;;28.97;17.77;;;;;;;;;;4968840;28;20504;-56
2021/12/07 03:37:26;;;;;;;17.73;9.87;;;;;;;;;;4971861;28;20102;-57
2021/12/07 03:39:53;;;;;;;21.37;12.93;;;;;;;;;;4980055;28;20019;-57
2021/12/07 03:42:20;;;;;;;17.50;11.13;;;;;;;;;;4996181;28;20037;-56
2021/12/07 03:44:47;;;;;;;11.23;5.30;;;;;;;;;;4996448;28;20057;-59
2021/12/07 03:47:14;;;;;;;13.53;4.70;;;;;;;;;;4996547;28;20030;-56
2021/12/07 03:49:40;;;;;;;12.03;3.80;;;;;;;;;;4988212;28;20422;-57
2021/12/07 03:52:08;;;;;;;17.60;6.67;;;;;;;;;;4972518;28;20039;-58
2021/12/07 03:54:34;;;;;;;18.40;7.33;;;;;;;;;;4972013;28;20089;-57
2021/12/07 03:57:01;;;;;;;10.73;5.37;;;;;;;;;;4972208;28;20100;-57
2021/12/07 03:59:28;;;;;;;15.80;6.40;;;;;;;;;;4977220;28;20038;-57
2021/12/07 04:01:55;;;;;;;11.47;4.07;;;;;;;;;;4996344;28;20076;-57
2021/12/07 04:04:22;;;;;;;18.27;4.47;;;;;;;;;;4996135;28;20089;-58
2021/12/07 04:06:49;;;;;;;11.17;4.07;;;;;;;;;;4996047;28;20053;-58
2021/12/07 04:09:16;;;;;;;12.57;5.33;;;;;;;;;;4995176;28;20039;-58
2021/12/07 04:11:43;;;;;;;8.17;4.17;;;;;;;;;;4973372;28;20518;-59
2021/12/07 04:14:10;;;;;;;11.10;4.03;;;;;;;;;;4971730;28;20038;-56
2021/12/07 04:16:37;;;;;;;10.70;3.13;;;;;;;;;;4954490;28;20030;-57
2021/12/07 04:19:05;;;;;;;11.97;3.40;;;;;;;;;;4971666;28;20023;-57
2021/12/07 04:21:32;;;;;;;7.23;2.53;;;;;;;;;;4992121;28;20441;-57
2021/12/07 04:23:59;;;;;;;8.00;3.00;;;;;;;;;;4995722;28;20121;-57
2021/12/07 04:26:26;;;;;;;6.13;3.53;;;;;;;;;;4995885;28;20026;-57
2021/12/07 04:28:53;;;;;;;7.17;3.70;;;;;;;;;;4995366;28;20041;-57
2021/12/07 04:31:20;;;;;;;9.17;3.67;;;;;;;;;;4979440;28;20085;-58
2021/12/07 04:33:47;;;;;;;10.43;3.70;;;;;;;;;;4993321;28;20470;-57
2021/12/07 04:36:14;;;;;;;7.40;3.60;;;;;;;;;;4990713;28;20084;-57
2021/12/07 04:38:41;;;;;;;9.37;3.13;;;;;;;;;;4989315;28;20026;-56
2021/12/07 04:41:08;;;;;;;8.10;3.60;;;;;;;;;;4987722;28;20045;-56
2021/12/07 04:43:36;;;;;;;9.27;3.73;;;;;;;;;;4970474;28;20030;-56
2021/12/07 04:46:11;;;;;;;8.10;3.40;;;;;;;;;;4972798;28;20055;-56
2021/12/07 04:59:33;;;;;;;5.40;3.27;;;;;;;;;;4988567;28;20057;-57
2021/12/07 05:02:00;;;;;;;8.70;4.37;;;;;;;;;;4988851;28;20097;-57
2021/12/07 05:04:30;;;;;;;5.07;3.30;;;;;;;;;;4988686;28;20097;-56
2021/12/07 05:07:07;;;;;;;6.93;3.00;;;;;;;;;;4986039;28;20039;-56
2021/12/07 05:12:31;;;;;;;5.23;2.70;;;;;;;;;;4934044;28;20497;-57
2021/12/07 05:15:11;;;;;;;5.47;2.57;;;;;;;;;;4974044;28;20466;-56
2021/12/07 05:17:59;;;;;;;5.60;3.10;;;;;;;;;;4972796;28;20118;-56
2021/12/07 05:34:32;;;;;;;;;;;;;;;;;;4969352;28;20042;-56
2021/12/07 05:34:44;;;;;;;5.35;2.85;;;;;;;;;;4992915;28;20497;-56
2021/12/07 05:39:57;;;;;;;6.17;2.60;;;;;;;;;;4972661;28;20046;-56
2021/12/07 05:42:24;;;;;;;4.83;2.40;;;;;;;;;;4968179;28;20085;-56
2021/12/07 05:44:51;;;;;;;6.33;2.73;;;;;;;;;;4968279;28;20106;-56
2021/12/07 05:47:18;;;;;;;4.87;2.57;;;;;;;;;;4975688;28;21144;-56
2021/12/07 05:49:45;;;;;;;5.57;2.73;;;;;;;;;;4988113;28;20050;-56
2021/12/07 05:52:11;;;;;;;5.73;2.33;;;;;;;;;;4992999;28;20027;-56
2021/12/07 05:54:38;;;;;;;5.73;2.50;;;;;;;;;;4992499;28;20038;-56
2021/12/07 05:57:06;;;;;;;4.77;2.63;;;;;;;;;;4986490;28;20034;-56
2021/12/07 05:59:32;;;;;;;3.90;2.00;;;;;;;;;;4973014;28;20485;-56
2021/12/07 06:01:59;;;;;;;4.03;2.23;;;;;;;;;;4971892;28;20031;-56
2021/12/07 06:04:28;;;;;;;5.30;2.90;;;;;;;;;;4967370;28;20437;-56
2021/12/07 06:06:55;;;;;;;7.03;2.80;;;;;;;;;;4972259;28;20035;-57
2021/12/07 06:09:21;;;;;;;5.17;3.00;;;;;;;;;;4987404;28;20030;-57
2021/12/07 06:11:50;;;;;;;6.23;2.70;;;;;;;;;;4987477;28;20022;-56
2021/12/07 06:14:19;;;;;;;8.40;3.03;;;;;;;;;;4992069;28;20096;-56
2021/12/07 06:16:47;;;;;;;6.67;2.90;;;;;;;;;;4989552;28;20070;-56
2021/12/07 06:19:13;;;;;;;6.37;3.00;;;;;;;;;;4989029;28;20018;-56
2021/12/07 06:21:40;;;;;;;6.27;2.83;;;;;;;;;;4991939;28;20038;-56
2021/12/07 06:24:07;;;;;;;6.60;2.80;;;;;;;;;;4992439;28;20041;-56
2021/12/07 06:26:34;;;;;;;5.07;2.73;;;;;;;;;;4977538;28;20039;-56
2021/12/07 06:29:01;;;;;;;6.17;2.47;;;;;;;;;;4969239;28;20038;-56
2021/12/07 06:31:28;;;;;;;3.77;2.30;;;;;;;;;;4969136;28;20488;-56
2021/12/07 06:33:55;;;;;;;8.87;2.70;;;;;;;;;;4968683;28;20360;-56
2021/12/07 06:36:24;;;;;;;9.10;2.67;;;;;;;;;;4974007;28;20410;-56
2021/12/07 06:38:51;;;;;;;6.83;2.77;;;;;;;;;;4974100;28;20038;-56
2021/12/07 06:41:18;;;;;;;3.90;2.33;;;;;;;;;;4974192;28;20026;-56
2021/12/07 06:43:45;;;;;;;4.97;2.33;;;;;;;;;;4990648;28;20033;-56
2021/12/07 06:46:12;;;;;;;7.17;2.50;;;;;;;;;;4993470;28;20019;-56
2021/12/07 06:48:39;;;;;;;4.83;2.50;;;;;;;;;;4987975;28;20030;-56
2021/12/07 06:51:06;;;;;;;3.13;1.93;;;;;;;;;;4988155;28;20034;-56
2021/12/07 06:53:36;;;;;;;3.23;2.10;;;;;;;;;;4973035;28;20026;-56
2021/12/07 06:56:07;;;;;;;4.30;2.70;;;;;;;;;;4968575;28;20031;-56
2021/12/07 06:58:35;;;;;;;3.27;1.80;;;;;;;;;;4973713;28;20352;-56
2021/12/07 07:01:03;;;;;;;3.60;2.17;;;;;;;;;;4974036;28;20015;-55
2021/12/07 07:03:29;;;;;;;3.93;2.23;;;;;;;;;;4987113;28;20029;-56
2021/12/07 07:05:56;;;;;;;4.03;1.90;;;;;;;;;;4993468;28;20417;-56
2021/12/07 07:08:23;;;;;;;3.87;1.90;;;;;;;;;;4993104;28;20030;-55
2021/12/07 07:10:50;;;;;;;5.33;2.60;;;;;;;;;;4987600;28;20045;-56
2021/12/07 07:13:16;;;;;;;5.60;2.40;;;;;;;;;;4975556;28;20027;-56
2021/12/07 07:15:43;;;;;;;3.87;1.90;;;;;;;;;;4967551;28;20023;-56
2021/12/07 07:18:10;;;;;;;3.20;2.03;;;;;;;;;;4968496;28;20033;-56
2021/12/07 07:20:37;;;;;;;7.43;2.50;;;;;;;;;;4972663;28;20022;-55
2021/12/07 07:23:04;;;;;;;6.10;2.17;;;;;;;;;;4983505;28;20027;-56
2021/12/07 07:25:31;;;;;;;4.23;2.23;;;;;;;;;;4992959;28;20073;-56
2021/12/07 07:27:59;;;;;;;3.67;1.83;;;;;;;;;;4992731;28;20041;-56
2021/12/07 07:30:25;;;;;;;4.10;1.90;;;;;;;;;;4992895;28;20097;-55
2021/12/07 07:32:52;;;;;;;4.10;2.27;;;;;;;;;;4979059;28;20023;-56
2021/12/07 07:35:20;;;;;;;3.63;1.93;;;;;;;;;;4968348;28;20090;-56
2021/12/07 07:37:47;;;;;;;4.53;2.00;;;;;;;;;;4968171;28;20054;-55
2021/12/07 07:40:16;;;;;;;4.47;2.10;;;;;;;;;;4968259;28;20035;-56
2021/12/07 07:42:43;;;;;;;4.23;1.73;;;;;;;;;;4973466;28;20033;-56
2021/12/07 07:45:10;;;;;;;3.67;2.10;;;;;;;;;;4973366;28;20496;-56
2021/12/07 07:47:37;;;;;;;4.60;1.83;;;;;;;;;;4973355;28;20034;-56
2021/12/07 07:50:05;;;;;;;4.90;1.73;;;;;;;;;;4973429;28;20038;-55
2021/12/07 07:52:32;;;;;;;3.70;2.17;;;;;;;;;;4978147;28;20031;-56
2021/12/07 07:54:59;;;;;;;3.43;2.03;;;;;;;;;;4988147;28;20433;-56
2021/12/07 07:57:25;;;;;;;4.27;2.00;;;;;;;;;;4977211;28;20046;-56
2021/12/07 07:59:52;;;;;;;3.40;2.00;;;;;;;;;;4968147;28;20031;-55
2021/12/07 08:02:19;;;;;;;5.73;2.10;;;;;;;;;;4967994;28;20031;-56
2021/12/07 08:04:47;;;;;;;3.97;1.60;;;;;;;;;;4971751;28;20050;-55
2021/12/07 08:07:14;;;;;;;4.07;2.00;;;;;;;;;;4980110;28;20042;-55
2021/12/07 08:09:41;;;;;;;3.20;1.83;;;;;;;;;;4992446;28;20112;-56
2021/12/07 08:12:08;;;;;;;4.63;2.23;;;;;;;;;;4992553;28;20045;-55
2021/12/07 08:14:35;;;;;;;4.23;2.13;;;;;;;;;;4992677;28;20377;-55
2021/12/07 08:17:02;;;;;;;3.20;2.00;;;;;;;;;;4982366;28;20034;-56
2021/12/07 08:19:28;;;;;;;3.90;2.10;;;;;;;;;;4967800;28;20022;-56
2021/12/07 08:21:55;;;;;;;4.70;1.90;;;;;;;;;;4967804;28;20098;-56
2021/12/07 08:24:22;;;;;;;3.70;1.93;;;;;;;;;;4986928;28;20492;-56
2021/12/07 08:26:49;;;;;;;3.30;1.93;;;;;;;;;;4991115;28;20022;-55
2021/12/07 08:29:15;;;;;;;3.60;1.67;;;;;;;;;;4996050;28;20042;-56
2021/12/07 08:31:43;;;;;;;3.77;1.97;;;;;;;;;;4996248;28;20019;-55
2021/12/07 08:34:10;;;;;;;3.77;2.07;;;;;;;;;;4978447;28;20030;-56
2021/12/07 08:36:37;;;;;;;3.63;2.00;;;;;;;;;;4976423;28;20031;-55
2021/12/07 08:39:04;;;;;;;4.60;2.10;;;;;;;;;;4972710;28;20022;-55
2021/12/07 08:41:31;;;;;;;3.63;1.80;;;;;;;;;;4970939;28;20260;-56
2021/12/07 08:43:57;;;;;;;4.23;2.23;;;;;;;;;;4974217;28;20030;-56
2021/12/07 08:46:24;;;;;;;5.50;2.13;;;;;;;;;;4971097;28;20039;-55
2021/12/07 08:48:51;;;;;;;4.37;2.30;;;;;;;;;;4973951;28;20482;-55
2021/12/07 08:51:18;;;;;;;2.73;1.70;;;;;;;;;;4976261;28;20370;-55
2021/12/07 08:53:53;;;;;;;3.13;1.80;;;;;;;;;;4985050;28;20478;-56
2021/12/07 09:01:51;;;;;;;2.90;1.87;;;;;;;;;;4990515;28;20407;-55
2021/12/07 09:04:19;;;;;;;2.97;1.40;;;;;;;;;;4976326;28;20454;-55
2021/12/07 09:06:46;;;;;;;2.57;1.47;;;;;;;;;;4970679;28;20264;-55
2021/12/07 09:09:13;;;;;;;3.20;1.47;;;;;;;;;;4970436;28;20285;-56
2021/12/07 09:11:40;;;;;;;3.73;2.10;;;;;;;;;;4974949;28;20332;-55
2021/12/07 09:14:10;;;;;;;9.60;1.90;;;;;;;;;;4987532;28;20256;-55
2021/12/07 09:16:37;;;;;;;2.97;1.40;;;;;;;;;;4995110;28;20280;-55
2021/12/07 09:19:05;;;;;;;3.27;1.67;;;;;;;;;;4995087;28;20315;-55
2021/12/07 09:21:32;;;;;;;4.67;1.53;;;;;;;;;;4995266;28;20264;-55
2021/12/07 09:23:58;;;;;;;5.03;1.70;;;;;;;;;;4979373;28;20718;-55
2021/12/07 09:26:25;;;;;;;3.20;1.73;;;;;;;;;;4970250;28;20260;-55
2021/12/07 09:28:52;;;;;;;4.17;1.70;;;;;;;;;;4970398;28;20260;-56
2021/12/07 09:31:19;;;;;;;3.67;2.07;;;;;;;;;;4983138;28;20294;-55
2021/12/07 09:33:46;;;;;;;2.40;1.30;;;;;;;;;;4993272;28;20311;-56
2021/12/07 09:36:13;;;;;;;3.10;1.50;;;;;;;;;;4994809;28;20611;-55
2021/12/07 09:38:40;;;;;;;4.83;1.97;;;;;;;;;;4994006;28;20268;-55
2021/12/07 09:41:08;;;;;;;3.67;1.90;;;;;;;;;;4983131;28;20692;-55
2021/12/07 09:43:36;;;;;;;3.00;2.00;;;;;;;;;;4976128;28;20300;-55
2021/12/07 09:46:04;;;;;;;5.57;1.60;;;;;;;;;;4978333;28;20272;-55
2021/12/07 09:48:31;;;;;;;3.10;1.70;;;;;;;;;;4989082;28;20276;-55
2021/12/07 09:50:58;;;;;;;3.30;1.70;;;;;;;;;;4989244;28;20288;-55
2021/12/07 09:53:25;;;;;;;3.07;1.37;;;;;;;;;;4989191;28;20256;-56
2021/12/07 09:55:52;;;;;;;2.20;1.20;;;;;;;;;;4987235;28;20264;-55
2021/12/07 09:58:19;;;;;;;3.23;1.70;;;;;;;;;;4974832;28;20261;-55
2021/12/07 10:00:47;;;;;;;5.67;1.70;;;;;;;;;;4974882;28;20336;-55
2021/12/07 10:03:15;;;;;;;2.60;1.40;;;;;;;;;;4974781;28;20268;-55
2021/12/07 10:05:42;;;;;;;2.77;1.60;;;;;;;;;;4978471;28;20276;-55
2021/12/07 10:08:09;;;;;;;3.17;1.70;;;;;;;;;;4972598;28;20264;-55
2021/12/07 10:10:41;;;;;;;3.63;1.60;;;;;;;;;;4969611;28;20288;-55
2021/12/07 10:13:08;;;;;;;2.40;1.50;;;;;;;;;;4969565;28;20268;-55
2021/12/07 10:15:36;;;;;;;4.30;2.07;;;;;;;;;;4969363;28;20253;-55
2021/12/07 10:18:05;;;;;;;3.63;1.57;;;;;;;;;;4987403;28;20276;-55
2021/12/07 10:20:39;;;;;;;2.87;1.40;;;;;;;;;;4994128;28;20248;-55
2021/12/07 10:23:25;;;;;;;3.77;1.93;;;;;;;;;;4976978;28;20673;-55
2021/12/07 10:25:55;;;;;;;4.00;2.17;;;;;;;;;;4974818;28;20693;-55
2021/12/07 10:28:32;;;;;;;2.87;1.40;;;;;;;;;;4974272;28;20261;-55
2021/12/07 10:31:04;;;;;;;3.17;1.60;;;;;;;;;;4969088;28;20297;-56
2021/12/07 10:33:35;;;;;;;3.23;1.70;;;;;;;;;;4988249;28;20759;-55
2021/12/07 10:36:08;;;;;;;2.87;1.50;;;;;;;;;;4988493;28;20773;-55
2021/12/07 10:38:37;;;;;;;3.70;1.60;;;;;;;;;;4988043;28;20252;-55
2021/12/07 10:41:05;;;;;;;4.37;1.50;;;;;;;;;;4993581;28;20698;-55
2021/12/07 10:43:41;;;;;;;2.60;1.47;;;;;;;;;;4992817;28;20348;-55
2021/12/07 10:46:26;;;;;;;2.83;1.50;;;;;;;;;;4993640;28;20250;-55
2021/12/07 10:49:07;;;;;;;3.45;1.52;;;;;;;;;;4993668;28;20310;-55
2021/12/07 10:51:34;;;;;;;2.80;1.30;;;;;;;;;;4987867;28;20059;-55
2021/12/07 10:54:01;;;;;;;4.50;1.60;;;;;;;;;;4968733;28;20680;-55
2021/12/07 10:56:30;;;;;;;3.87;1.70;;;;;;;;;;4968696;28;20702;-55
2021/12/07 10:59:01;;;;;;;2.80;1.40;;;;;;;;;;4968518;28;20261;-55
2021/12/07 11:01:32;;;;;;;3.93;1.80;;;;;;;;;;4971696;28;20318;-55
2021/12/07 11:04:17;;;;;;;5.83;1.77;;;;;;;;;;4993268;28;20790;-55
2021/12/07 11:07:02;;;;;;;5.07;2.83;;;;;;;;;;4993475;28;20354;-55
2021/12/07 11:09:29;;;;;;;6.78;3.58;;;;;;;;;;4992835;28;20045;-55
2021/12/07 11:12:25;;;;;;;33.40;13.20;;;;;;;;;;4991484;28;20070;-55
2021/12/07 11:14:53;;;;;;;;;;;;;;;;;;4972941;28;21096;-55
2021/12/07 11:17:37;;;;;;;43.97;19.17;;;;;;;;;;4987876;28;19905;-55
2021/12/07 11:20:05;;;;;;;75.37;31.30;;;;;;;;;;4988044;28;20248;-55
2021/12/07 11:22:34;;;;;;;74.40;32.13;;;;;;;;;;4973407;28;20280;-55
2021/12/07 11:25:03;;;;;;;66.80;30.40;;;;;;;;;;4972537;28;20728;-55
2021/12/07 11:30:16;;;;;;;105.70;44.63;;;;;;;;;;4993026;28;20303;-54
2021/12/07 11:32:45;;;;;;;86.37;37.63;;;;;;;;;;4992951;28;20445;-55
2021/12/07 11:35:14;;;;;;;69.57;33.70;;;;;;;;;;4992861;28;20264;-55
2021/12/07 11:37:42;;;;;;;89.93;39.73;;;;;;;;;;4971802;28;20272;-55
2021/12/07 11:40:10;;;;;;;119.40;50.00;;;;;;;;;;4968154;28;21121;-55
2021/12/07 11:42:38;;;;;;;96.57;42.93;;;;;;;;;;4967907;28;20287;-55
2021/12/07 11:45:16;;;;;;;59.17;27.13;;;;;;;;;;4968183;28;20271;-55
2021/12/07 11:47:47;;;;;;;47.07;22.40;;;;;;;;;;4988300;28;20358;-55
2021/12/07 11:50:22;;;;;;;58.73;28.97;;;;;;;;;;4992614;28;20287;-55
2021/12/07 11:52:51;;;;;;;42.77;20.73;;;;;;;;;;4992856;28;20248;-55
2021/12/07 11:55:19;;;;;;;57.30;29.47;;;;;;;;;;4978165;28;20261;-55
2021/12/07 11:57:46;;;;;;;50.90;26.17;;;;;;;;;;4972473;28;20759;-55
2021/12/07 12:00:16;;;;;;;49.60;21.63;;;;;;;;;;4967794;28;20866;-55
2021/12/07 12:02:43;;;;;;;27.57;12.50;;;;;;;;;;4971039;28;20801;-55
2021/12/07 12:05:10;;;;;;;20.83;10.47;;;;;;;;;;4972528;28;20655;-55
2021/12/07 12:07:37;;;;;;;20.33;10.23;;;;;;;;;;4971817;28;20264;-56
2021/12/07 12:10:04;;;;;;;17.73;8.00;;;;;;;;;;4988817;28;20320;-55
2021/12/07 12:12:34;;;;;;;11.57;5.80;;;;;;;;;;4996458;28;20257;-55
2021/12/07 12:15:19;;;;;;;11.37;5.40;;;;;;;;;;4996272;28;20252;-55
2021/12/07 12:17:45;;;;;;;8.05;3.85;;;;;;;;;;4996296;28;20346;-55
2021/12/07 12:20:18;;;;;;;11.73;4.43;;;;;;;;;;4982476;28;20042;-55
2021/12/07 12:22:52;;;;;;;9.53;4.77;;;;;;;;;;4971472;28;20268;-55
2021/12/07 12:25:21;;;;;;;16.63;4.73;;;;;;;;;;4971116;28;20257;-55
2021/12/07 12:27:48;;;;;;;13.63;5.40;;;;;;;;;;4971364;28;20267;-55
2021/12/07 12:30:20;;;;;;;11.60;4.13;;;;;;;;;;4984652;28;20296;-54
2021/12/07 12:32:53;;;;;;;4.80;2.43;;;;;;;;;;4996137;28;20276;-55
2021/12/07 12:35:26;;;;;;;7.27;2.73;;;;;;;;;;4995656;28;20268;-55
2021/12/07 12:37:52;;;;;;;8.27;2.33;;;;;;;;;;4995740;28;20252;-55
2021/12/07 12:40:21;;;;;;;8.07;2.90;;;;;;;;;;4985028;28;20954;-55
2021/12/07 12:42:50;;;;;;;4.30;2.33;;;;;;;;;;4993644;28;20260;-54
2021/12/07 12:45:27;;;;;;;7.03;3.40;;;;;;;;;;4990585;28;20740;-55
2021/12/07 12:47:55;;;;;;;4.27;2.30;;;;;;;;;;4990390;28;20267;-55
2021/12/07 12:50:31;;;;;;;8.90;3.17;;;;;;;;;;4982061;28;20343;-55
2021/12/07 12:52:59;;;;;;;10.53;2.77;;;;;;;;;;4972933;28;20273;-55
2021/12/07 12:55:38;;;;;;;7.20;3.23;;;;;;;;;;4976151;28;20268;-55
2021/12/07 12:58:07;;;;;;;5.77;2.80;;;;;;;;;;4976372;28;20272;-55
2021/12/07 13:00:52;;;;;;;7.03;3.00;;;;;;;;;;4984581;28;20267;-55
2021/12/07 13:03:19;;;;;;;4.60;2.08;;;;;;;;;;4995630;28;20660;-55
2021/12/07 13:05:57;;;;;;;5.90;2.37;;;;;;;;;;4991770;28;20045;-55
2021/12/07 13:08:24;;;;;;;6.43;2.20;;;;;;;;;;4984305;28;20288;-55
2021/12/07 13:11:09;;;;;;;9.13;2.30;;;;;;;;;;4970843;28;20292;-55
2021/12/07 13:13:37;;;;;;;7.75;2.47;;;;;;;;;;4976398;28;20296;-54
2021/12/07 13:16:14;;;;;;;6.10;2.37;;;;;;;;;;4974686;28;20027;-54
2021/12/07 13:18:41;;;;;;;6.43;2.10;;;;;;;;;;4975315;28;20778;-54
2021/12/07 13:21:26;;;;;;;7.60;3.20;;;;;;;;;;4975784;28;20253;-54
2021/12/07 13:23:59;;;;;;;5.95;2.40;;;;;;;;;;4975623;28;20264;-54
2021/12/07 13:26:26;;;;;;;8.73;3.43;;;;;;;;;;4975281;28;20027;-54
2021/12/07 13:29:05;;;;;;;7.53;2.33;;;;;;;;;;4969987;28;20612;-54
2021/12/07 13:31:37;;;;;;;6.33;2.33;;;;;;;;;;4970244;28;20280;-54
2021/12/07 13:34:04;;;;;;;4.60;2.30;;;;;;;;;;4969909;28;20249;-54
2021/12/07 13:36:36;;;;;;;9.87;3.47;;;;;;;;;;4970189;28;20616;-54
2021/12/07 13:39:08;;;;;;;7.53;3.67;;;;;;;;;;4978641;28;20284;-54
2021/12/07 13:41:35;;;;;;;8.90;3.33;;;;;;;;;;4975272;28;20261;-53
2021/12/07 13:44:10;;;;;;;13.87;3.60;;;;;;;;;;4975129;28;20257;-54
2021/12/07 13:46:37;;;;;;;13.60;3.63;;;;;;;;;;4975342;28;20257;-54
2021/12/07 13:49:07;;;;;;;9.37;3.30;;;;;;;;;;4973990;28;20049;-54
2021/12/07 13:51:35;;;;;;;16.30;3.93;;;;;;;;;;4969437;28;20283;-54
2021/12/07 13:54:04;;;;;;;9.27;3.40;;;;;;;;;;4969669;28;20276;-54
2021/12/07 13:56:37;;;;;;;6.80;3.20;;;;;;;;;;4969578;28;20929;-54
2021/12/07 13:59:06;;;;;;;8.43;3.23;;;;;;;;;;4977803;28;20268;-54
2021/12/07 14:01:34;;;;;;;7.57;3.50;;;;;;;;;;4977576;28;20097;-54
2021/12/07 14:04:02;;;;;;;6.93;3.20;;;;;;;;;;4987179;28;20030;-54
2021/12/07 14:06:29;;;;;;;7.33;2.80;;;;;;;;;;4980155;28;20030;-54
2021/12/07 14:09:05;;;;;;;6.10;3.40;;;;;;;;;;4984445;28;20026;-55
2021/12/07 14:11:32;;;;;;;6.40;3.23;;;;;;;;;;4988785;28;20045;-55
2021/12/07 14:13:59;;;;;;;9.73;4.00;;;;;;;;;;4970268;28;20463;-54
2021/12/07 14:16:28;;;;;;;4.97;2.70;;;;;;;;;;4978158;28;20038;-54
2021/12/07 14:18:55;;;;;;;4.97;2.50;;;;;;;;;;4974758;28;20034;-55
2021/12/07 14:21:22;;;;;;;7.20;2.93;;;;;;;;;;4986145;28;20034;-54
2021/12/07 14:23:51;;;;;;;9.73;2.33;;;;;;;;;;4993531;28;20388;-55
2021/12/07 14:26:19;;;;;;;7.03;3.27;;;;;;;;;;4993134;28;20082;-54
2021/12/07 14:28:51;;;;;;;4.87;2.40;;;;;;;;;;4981595;28;20470;-55
2021/12/07 14:31:19;;;;;;;7.27;3.10;;;;;;;;;;4989243;28;20436;-56
2021/12/07 14:33:54;;;;;;;10.13;3.00;;;;;;;;;;4969373;28;20034;-55
2021/12/07 14:36:20;;;;;;;;;;;;;;;;;;4973736;28;20038;-55
2021/12/07 14:38:48;;;;;;;11.93;3.23;;;;;;;;;;4976478;28;20000;-55
2021/12/07 14:41:16;;;;;;;7.60;3.60;;;;;;;;;;4972830;28;20101;-55
2021/12/07 14:43:43;;;;;;;8.73;3.90;;;;;;;;;;4973403;28;20480;-55
2021/12/07 14:46:12;;;;;;;8.33;3.50;;;;;;;;;;4984354;28;20382;-55
2021/12/07 14:48:40;;;;;;;11.33;3.67;;;;;;;;;;4974029;28;20033;-55
2021/12/07 14:51:26;;;;;;;7.83;3.27;;;;;;;;;;4975977;28;20045;-55
2021/12/07 14:53:57;;;;;;;9.83;3.93;;;;;;;;;;4984405;28;20110;-54
2021/12/07 14:56:24;;;;;;;5.10;2.87;;;;;;;;;;4971221;28;20122;-55
2021/12/07 14:58:52;;;;;;;7.47;2.80;;;;;;;;;;4968520;28;20030;-55
2021/12/07 15:01:22;;;;;;;8.97;3.60;;;;;;;;;;4970858;28;20041;-55
2021/12/07 15:03:53;;;;;;;6.33;3.20;;;;;;;;;;4977381;28;20034;-55
2021/12/07 15:06:21;;;;;;;7.73;3.30;;;;;;;;;;4970411;28;20023;-56
2021/12/07 15:08:48;;;;;;;7.77;3.50;;;;;;;;;;4980850;28;20026;-55
2021/12/07 15:11:15;;;;;;;11.57;3.60;;;;;;;;;;4992759;28;20030;-55
2021/12/07 15:13:42;;;;;;;5.80;3.17;;;;;;;;;;4986915;28;20023;-55
2021/12/07 15:16:10;;;;;;;9.13;3.87;;;;;;;;;;4982461;28;20139;-55
2021/12/07 15:18:40;;;;;;;13.23;3.77;;;;;;;;;;4970847;28;20402;-55
2021/12/07 15:21:34;;;;;;;7.93;3.67;;;;;;;;;;4985418;28;20030;-55
2021/12/07 15:24:06;;;;;;;6.27;3.03;;;;;;;;;;4979005;28;20030;-55
2021/12/07 15:26:32;;;;;;;5.60;3.33;;;;;;;;;;4987161;28;20045;-55
2021/12/07 15:29:02;;;;;;;4.77;2.80;;;;;;;;;;4976597;28;20367;-56
2021/12/07 15:31:30;;;;;;;6.33;2.80;;;;;;;;;;4972868;28;20077;-55
2021/12/07 15:33:58;;;;;;;9.13;3.63;;;;;;;;;;4973511;28;20097;-55
2021/12/07 15:36:26;;;;;;;15.83;3.07;;;;;;;;;;4972787;28;20030;-55
2021/12/07 15:39:05;;;;;;;9.53;3.20;;;;;;;;;;4977339;28;20062;-55
2021/12/07 15:41:32;;;;;;;4.97;2.70;;;;;;;;;;4968947;28;20027;-55
2021/12/07 15:43:59;;;;;;;6.97;3.40;;;;;;;;;;4978370;28;20381;-55
2021/12/07 15:46:26;;;;;;;7.13;2.40;;;;;;;;;;4986912;28;20038;-55
2021/12/07 15:48:56;;;;;;;4.07;2.30;;;;;;;;;;4981772;28;20066;-55
2021/12/07 15:51:22;;;;;;;7.20;2.80;;;;;;;;;;4990351;28;20042;-55
2021/12/07 15:53:52;;;;;;;6.60;2.97;;;;;;;;;;4992308;28;20617;-55
2021/12/07 15:56:20;;;;;;;6.90;2.83;;;;;;;;;;4992179;28;20428;-55
2021/12/07 15:58:48;;;;;;;7.30;2.73;;;;;;;;;;4982001;28;20031;-55
2021/12/07 16:01:15;;;;;;;8.63;3.40;;;;;;;;;;4973236;28;20035;-55
2021/12/07 16:03:43;;;;;;;4.13;2.40;;;;;;;;;;4969413;28;20086;-55
2021/12/07 16:06:22;;;;;;;4.13;2.30;;;;;;;;;;4967655;28;20111;-55
2021/12/07 16:08:49;;;;;;;8.13;2.40;;;;;;;;;;4977568;28;20509;-55
2021/12/07 16:11:19;;;;;;;6.97;3.20;;;;;;;;;;4970472;28;20047;-55
2021/12/07 16:13:50;;;;;;;6.17;2.30;;;;;;;;;;4959774;28;20405;-55
2021/12/07 16:16:19;;;;;;;4.63;2.10;;;;;;;;;;4984422;28;20102;-55
2021/12/07 16:18:46;;;;;;;7.17;2.30;;;;;;;;;;4974471;28;20030;-55
2021/12/07 16:21:13;;;;;;;6.73;2.70;;;;;;;;;;4987780;28;20023;-55
2021/12/07 16:23:42;;;;;;;5.10;2.70;;;;;;;;;;4972960;28;20494;-55
2021/12/07 16:26:09;;;;;;;5.90;2.60;;;;;;;;;;4983490;28;20034;-55
2021/12/07 16:28:37;;;;;;;5.10;2.27;;;;;;;;;;4985148;28;20023;-55
2021/12/07 16:31:04;;;;;;;6.77;2.53;;;;;;;;;;4987067;28;20034;-55
2021/12/07 16:33:31;;;;;;;6.80;2.23;;;;;;;;;;4986580;28;20085;-55
2021/12/07 16:35:58;;;;;;;5.57;1.87;;;;;;;;;;4990368;28;20038;-55
2021/12/07 16:38:25;;;;;;;4.27;2.60;;;;;;;;;;4989516;28;20030;-55